Terminal Aerodrome Forecast
Issued by NWS

Home | Current Version | Previous Version | Text Only | Print | Product List | Glossary On
Versions: 1 2 3 4 5 6 7 8 9 10 11 12 13 14 15 16 17
000
FTUS43 KGRB 211907 AAA
TAFCWA
TAF AMD
KCWA 211907Z 2119/2218 12004KT 3SM -RA BR OVC025
     FM212200 11006KT 5SM -SHRA OVC010
     FM220300 08002KT 2SM BR OVC007
     FM221500 02005KT P6SM BKN015=

USA.gov is the U.S. government's official web portal to all federal, state and local government web resources and services.